Time;durP1;ratioP1;P1;durP2;ratioP2;P2;SDS_P1;SDS_P2;PMS_P1;PMS_P2;Temp;Humidity;BMP_temperature;BMP_pressure;BME280_temperature;BME280_humidity;BME280_pressure;Samples;Min_cycle;Max_cycle;Signal;HPM_P1;HPM_P2
2023/11/06 00:02:40;;;;;;;;;;;;;;;11.12;63.44;96406.97;5084992;28;19944;-83
2023/11/06 00:05:28;;;;;;;;;;;;;;;10.91;64.10;96410.75;5069119;28;20386;-82
2023/11/06 00:08:18;;;;;;;;;;;;;;;11.04;64.36;96416.91;5089645;28;19924;-81
2023/11/06 00:11:08;;;;;;;;;;;;;;;10.97;64.02;96420.22;5068880;28;20024;-82
2023/11/06 00:13:56;;;;;;;;;;;;;;;11.09;63.64;96422.06;5089665;28;19923;-83
2023/11/06 00:16:45;;;;;;;;;;;;;;;11.13;64.38;96419.44;5084113;28;19971;-82
2023/11/06 00:19:35;;;;;;;;;;;;;;;11.21;63.29;96429.34;5088271;28;19924;-81
2023/11/06 00:22:24;;;;;;;;;;;;;;;10.98;63.63;96437.31;5079261;28;20021;-82
2023/11/06 00:25:13;;;;;;;;;;;;;;;10.98;63.83;96434.59;5052192;28;19928;-82
2023/11/06 00:28:02;;;;;;;;;;;;;;;11.01;63.22;96431.97;5055108;28;19967;-81
2023/11/06 00:30:50;;;;;;;;;;;;;;;10.87;63.87;96437.06;5052590;28;19998;-82
2023/11/06 00:33:39;;;;;;;;;;;;;;;10.84;63.74;96434.22;5069397;28;19974;-82
2023/11/06 00:36:27;;;;;;;;;;;;;;;10.85;63.31;96444.75;5066517;28;19975;-83
2023/11/06 00:39:16;;;;;;;;;;;;;;;10.87;63.68;96445.19;5070723;28;19977;-82
2023/11/06 00:42:05;;;;;;;;;;;;;;;10.89;63.44;96461.94;5060897;28;20091;-82
2023/11/06 00:44:54;;;;;;;;;;;;;;;10.90;63.52;96455.34;5071471;28;19928;-82
2023/11/06 00:47:42;;;;;;;;;;;;;;;10.87;63.08;96458.78;5051928;28;20284;-82
2023/11/06 00:50:30;;;;;;;;;;;;;;;10.99;62.82;96461.44;5048327;28;19931;-82
2023/11/06 00:53:18;;;;;;;;;;;;;;;11.12;62.63;96470.28;5068344;28;20334;-83
2023/11/06 00:56:07;;;;;;;;;;;;;;;11.11;62.89;96484.22;5064679;28;19925;-83
2023/11/06 00:58:58;;;;;;;;;;;;;;;11.14;62.44;96481.59;5057956;28;19932;-82
2023/11/06 01:01:46;;;;;;;;;;;;;;;11.00;63.26;96492.09;5061761;28;19925;-82
2023/11/06 01:04:34;;;;;;;;;;;;;;;11.11;63.15;96492.38;5060084;28;20403;-83
2023/11/06 01:07:22;;;;;;;;;;;;;;;11.20;63.21;96490.28;5066936;28;20070;-82
2023/11/06 01:10:14;;;;;;;;;;;;;;;11.15;63.34;96509.56;5071844;28;19955;-83
2023/11/06 01:13:03;;;;;;;;;;;;;;;11.13;63.24;96520.00;5068730;28;19944;-83
2023/11/06 01:15:52;;;;;;;;;;;;;;;11.07;63.43;96499.66;5071131;28;19924;-83
2023/11/06 01:18:40;;;;;;;;;;;;;;;11.13;65.16;96520.00;5069499;28;20112;-83
2023/11/06 01:21:28;;;;;;;;;;;;;;;11.13;63.04;96531.69;5071291;28;19925;-82
2023/11/06 01:24:17;;;;;;;;;;;;;;;10.99;63.11;96540.22;5091285;28;20264;-83
2023/11/06 01:27:29;;;;;;;;;;;;;;;11.00;63.50;96533.66;5087397;28;20399;-83
2023/11/06 01:30:18;;;;;;;;;;;;;;;10.90;63.00;96527.94;5084357;28;19924;-83
2023/11/06 01:33:07;;;;;;;;;;;;;;;10.96;63.57;96530.03;5091023;28;19924;-83
2023/11/06 01:35:55;;;;;;;;;;;;;;;10.98;63.03;96535.94;5085396;28;19954;-83
2023/11/06 01:38:43;;;;;;;;;;;;;;;10.83;63.11;96533.19;5090951;28;20016;-83
2023/11/06 01:41:32;;;;;;;;;;;;;;;10.77;63.17;96543.50;5092539;28;20379;-81
2023/11/06 01:44:21;;;;;;;;;;;;;;;10.69;63.37;96542.50;5073046;28;19924;-83
2023/11/06 01:47:09;;;;;;;;;;;;;;;10.69;63.08;96544.44;5081827;28;20286;-83
2023/11/06 01:49:59;;;;;;;;;;;;;;;10.57;63.38;96545.25;5090937;28;19967;-83
2023/11/06 01:52:47;;;;;;;;;;;;;;;10.55;63.69;96544.03;5092745;28;19924;-84
2023/11/06 01:55:36;;;;;;;;;;;;;;;10.56;64.19;96545.63;5077228;28;19924;-82
2023/11/06 01:58:24;;;;;;;;;;;;;;;10.51;63.99;96546.63;5070341;28;19935;-83
2023/11/06 02:01:12;;;;;;;;;;;;;;;10.51;64.00;96545.84;5077836;28;19924;-83
2023/11/06 02:04:00;;;;;;;;;;;;;;;10.48;64.13;96545.38;5091902;28;19931;-83
2023/11/06 02:06:51;;;;;;;;;;;;;;;10.42;64.60;96552.19;5088509;28;19924;-83
2023/11/06 02:09:40;;;;;;;;;;;;;;;10.54;64.84;96556.81;5087312;28;19924;-82
2023/11/06 02:12:31;;;;;;;;;;;;;;;10.54;64.40;96558.72;5085952;28;20007;-83
2023/11/06 02:15:21;;;;;;;;;;;;;;;10.62;64.23;96568.69;5074363;28;19971;-83
2023/11/06 02:18:09;;;;;;;;;;;;;;;10.61;64.71;96565.16;5078542;28;20276;-82
2023/11/06 02:20:57;;;;;;;;;;;;;;;10.61;64.75;96570.59;5088035;28;19924;-83
2023/11/06 02:23:49;;;;;;;;;;;;;;;10.68;64.35;96570.78;5087599;28;19924;-82
2023/11/06 02:26:37;;;;;;;;;;;;;;;10.65;65.09;96576.94;5083350;28;19931;-83
2023/11/06 02:29:25;;;;;;;;;;;;;;;10.71;64.74;96586.41;5093478;28;20430;-82
2023/11/06 02:32:14;;;;;;;;;;;;;;;10.74;64.77;96579.50;5076627;28;19924;-83
2023/11/06 02:35:02;;;;;;;;;;;;;;;10.77;64.90;96583.47;5074084;28;20018;-83
2023/11/06 02:37:51;;;;;;;;;;;;;;;10.71;64.67;96585.63;5091282;28;19924;-83
2023/11/06 02:40:41;;;;;;;;;;;;;;;10.57;64.76;96590.63;5091748;28;19925;-83
2023/11/06 02:43:29;;;;;;;;;;;;;;;10.53;65.49;96600.59;5075766;28;19978;-82
2023/11/06 02:46:17;;;;;;;;;;;;;;;10.62;64.82;96603.97;5071844;28;19924;-82
2023/11/06 02:49:05;;;;;;;;;;;;;;;10.68;65.03;96610.75;5092887;28;19935;-83
2023/11/06 02:51:54;;;;;;;;;;;;;;;10.72;64.95;96611.66;5091653;28;19924;-81
2023/11/06 02:54:43;;;;;;;;;;;;;;;10.78;64.75;96606.78;5089946;28;19924;-82
2023/11/06 02:57:33;;;;;;;;;;;;;;;10.87;64.54;96616.38;5087634;28;19924;-81
2023/11/06 03:00:22;;;;;;;;;;;;;;;10.82;64.82;96613.09;5077685;28;19924;-82
2023/11/06 03:03:12;;;;;;;;;;;;;;;10.76;64.42;96609.84;5087830;28;19924;-83
2023/11/06 03:06:01;;;;;;;;;;;;;;;10.83;64.80;96604.59;5090365;28;20302;-83
2023/11/06 03:08:49;;;;;;;;;;;;;;;10.72;65.20;96614.38;5076180;28;19924;-83
2023/11/06 03:11:37;;;;;;;;;;;;;;;10.81;65.44;96628.59;5080795;28;20336;-83
2023/11/06 03:14:26;;;;;;;;;;;;;;;10.78;64.99;96629.28;5089725;28;19932;-83
2023/11/06 03:17:15;;;;;;;;;;;;;;;10.72;65.48;96631.47;5090455;28;19924;-83
2023/11/06 03:20:08;;;;;;;;;;;;;;;10.83;64.73;96633.69;5084360;28;20402;-83
2023/11/06 03:22:56;;;;;;;;;;;;;;;10.66;65.36;96646.41;5086456;28;19928;-82
2023/11/06 03:25:44;;;;;;;;;;;;;;;10.68;65.22;96648.78;5074400;28;19931;-83
2023/11/06 03:28:34;;;;;;;;;;;;;;;10.39;66.66;96639.78;5088010;28;20295;-82
2023/11/06 03:31:24;;;;;;;;;;;;;;;10.43;66.93;96648.81;5073893;28;20017;-81
2023/11/06 03:34:12;;;;;;;;;;;;;;;10.51;66.15;96654.47;5078537;28;19924;-83
2023/11/06 03:37:00;;;;;;;;;;;;;;;10.44;67.05;96658.56;5062103;28;19931;-83
2023/11/06 03:39:49;;;;;;;;;;;;;;;10.36;66.98;96670.31;5074147;28;19924;-83
2023/11/06 03:42:37;;;;;;;;;;;;;;;10.41;66.59;96670.09;5087046;28;19928;-81
2023/11/06 03:45:25;;;;;;;;;;;;;;;10.38;66.83;96669.97;5067707;28;19924;-81
2023/11/06 03:48:15;;;;;;;;;;;;;;;10.37;67.03;96671.88;5088577;28;20349;-83
2023/11/06 03:51:03;;;;;;;;;;;;;;;10.47;66.98;96674.16;5085247;28;20276;-83
2023/11/06 03:53:52;;;;;;;;;;;;;;;10.44;66.81;96672.13;5089548;28;20280;-83
2023/11/06 03:56:41;;;;;;;;;;;;;;;10.38;67.16;96676.19;5086729;28;19939;-83
2023/11/06 03:59:30;;;;;;;;;;;;;;;10.29;67.53;96677.44;5080776;28;19924;-83
2023/11/06 04:02:18;;;;;;;;;;;;;;;10.29;67.54;96683.66;5066442;28;20380;-83
2023/11/06 04:05:08;;;;;;;;;;;;;;;10.15;68.17;96675.81;5088050;28;19924;-83
2023/11/06 04:07:57;;;;;;;;;;;;;;;10.29;67.86;96677.44;5073913;28;19931;-83
2023/11/06 04:10:45;;;;;;;;;;;;;;;10.31;67.70;96677.88;5066500;28;19924;-84
2023/11/06 04:13:33;;;;;;;;;;;;;;;10.35;67.56;96676.88;5090489;28;19985;-84
2023/11/06 04:16:21;;;;;;;;;;;;;;;10.37;67.19;96680.03;5076839;28;19925;-83
2023/11/06 04:19:10;;;;;;;;;;;;;;;10.28;67.98;96665.81;5083178;28;19924;-83
2023/11/06 04:22:00;;;;;;;;;;;;;;;10.21;67.55;96681.81;5061035;28;19935;-83
2023/11/06 04:24:48;;;;;;;;;;;;;;;10.24;68.00;96681.16;5091143;28;20084;-82
2023/11/06 04:27:36;;;;;;;;;;;;;;;10.36;67.39;96689.31;5091158;28;19925;-83
2023/11/06 04:30:24;;;;;;;;;;;;;;;10.33;67.40;96687.25;5069028;28;19925;-82
2023/11/06 04:33:12;;;;;;;;;;;;;;;10.34;67.23;96690.78;5091485;28;20300;-82
2023/11/06 04:36:01;;;;;;;;;;;;;;;10.32;66.79;96687.59;5075774;28;19924;-83
2023/11/06 04:38:52;;;;;;;;;;;;;;;10.23;67.63;96695.84;5076725;28;19924;-82
2023/11/06 04:41:41;;;;;;;;;;;;;;;10.29;67.86;96686.38;5076450;28;19924;-83
2023/11/06 04:44:29;;;;;;;;;;;;;;;10.28;66.97;96690.22;5079594;28;20407;-83
2023/11/06 04:47:18;;;;;;;;;;;;;;;10.38;66.82;96694.41;5073739;28;19924;-83
2023/11/06 04:50:08;;;;;;;;;;;;;;;10.29;66.97;96689.09;5086442;28;20014;-83
2023/11/06 04:52:57;;;;;;;;;;;;;;;10.41;66.74;96696.44;5089380;28;20081;-81
2023/11/06 04:55:47;;;;;;;;;;;;;;;10.41;66.72;96691.00;5082286;28;19924;-83
2023/11/06 04:58:35;;;;;;;;;;;;;;;10.31;66.66;96696.88;5093333;28;19932;-83
2023/11/06 05:01:23;;;;;;;;;;;;;;;10.46;66.14;96694.28;5092549;28;20069;-82
2023/11/06 05:04:11;;;;;;;;;;;;;;;10.58;65.95;96692.69;5088111;28;19963;-82
2023/11/06 05:07:02;;;;;;;;;;;;;;;10.71;65.44;96699.72;5094861;28;19924;-83
2023/11/06 05:09:50;;;;;;;;;;;;;;;10.71;65.36;96707.88;5094974;28;19924;-82
2023/11/06 05:12:39;;;;;;;;;;;;;;;10.74;65.29;96712.59;5071328;28;19924;-83
2023/11/06 05:15:27;;;;;;;;;;;;;;;10.88;64.14;96709.53;5074347;28;19947;-83
2023/11/06 05:18:15;;;;;;;;;;;;;;;10.99;64.07;96711.44;5085527;28;20008;-83
2023/11/06 05:21:05;;;;;;;;;;;;;;;11.09;63.42;96714.81;5094630;28;20299;-84
2023/11/06 05:23:54;;;;;;;;;;;;;;;11.23;63.07;96715.22;5084904;28;19925;-81
2023/11/06 05:26:42;;;;;;;;;;;;;;;11.18;63.05;96721.69;5088770;28;19931;-82
2023/11/06 05:29:33;;;;;;;;;;;;;;;11.19;63.64;96719.78;5068407;28;19924;-80
2023/11/06 05:32:21;;;;;;;;;;;;;;;11.41;62.54;96715.75;5071185;28;19967;-82
2023/11/06 05:35:09;;;;;;;;;;;;;;;11.16;62.82;96725.88;5080823;28;20379;-80
2023/11/06 05:37:57;;;;;;;;;;;;;;;11.22;62.79;96713.63;5081301;28;20454;-81
2023/11/06 05:40:45;;;;;;;;;;;;;;;10.95;63.22;96726.84;5083964;28;19929;-81
2023/11/06 05:43:37;;;;;;;;;;;;;;;10.88;63.45;96729.34;5051796;28;19925;-79
2023/11/06 05:46:26;;;;;;;;;;;;;;;10.85;63.76;96746.31;5081279;28;19977;-84
2023/11/06 05:49:17;;;;;;;;;;;;;;;10.69;64.81;96756.28;5070481;28;19958;-79
2023/11/06 05:52:06;;;;;;;;;;;;;;;10.75;64.41;96766.59;5052311;28;20392;-83
2023/11/06 05:54:54;;;;;;;;;;;;;;;10.61;64.44;96770.78;5054645;28;19989;-86
2023/11/06 05:57:42;;;;;;;;;;;;;;;10.71;64.17;96775.78;5070802;28;19972;-85
2023/11/06 06:00:31;;;;;;;;;;;;;;;10.79;64.28;96788.44;5068640;28;20017;-85
2023/11/06 06:03:21;;;;;;;;;;;;;;;10.83;63.83;96791.28;5078799;28;19939;-88
2023/11/06 06:06:10;;;;;;;;;;;;;;;10.94;63.80;96795.91;5072539;28;19943;-78
2023/11/06 06:08:58;;;;;;;;;;;;;;;10.85;63.53;96803.38;5070018;28;20014;-86
2023/11/06 06:11:47;;;;;;;;;;;;;;;10.86;63.39;96810.38;5072959;28;20360;-85
2023/11/06 06:14:35;;;;;;;;;;;;;;;10.95;63.55;96819.22;5060311;28;20376;-83
2023/11/06 06:17:24;;;;;;;;;;;;;;;10.92;63.66;96821.81;5071234;28;20518;-87
2023/11/06 06:20:14;;;;;;;;;;;;;;;11.02;63.80;96833.06;5074850;28;19931;-88
2023/11/06 06:23:03;;;;;;;;;;;;;;;11.12;63.27;96834.50;5085712;28;20295;-80
2023/11/06 06:25:51;;;;;;;;;;;;;;;11.17;63.23;96845.16;5093218;28;19924;-80
2023/11/06 06:28:39;;;;;;;;;;;;;;;11.21;63.58;96853.44;5072960;28;19935;-78
2023/11/06 06:31:27;;;;;;;;;;;;;;;11.29;63.57;96863.38;5084348;28;19945;-78
2023/11/06 06:34:17;;;;;;;;;;;;;;;11.25;64.08;96881.53;5091492;28;19924;-80
2023/11/06 06:37:06;;;;;;;;;;;;;;;11.27;64.67;96887.41;5090730;28;19932;-80
2023/11/06 06:39:55;;;;;;;;;;;;;;;11.25;65.80;96879.59;5090948;28;19966;-79
2023/11/06 06:42:43;;;;;;;;;;;;;;;11.28;65.93;96870.75;5092014;28;19931;-79
2023/11/06 06:45:32;;;;;;;;;;;;;;;11.22;66.50;96876.75;5069305;28;19927;-79
2023/11/06 06:48:20;;;;;;;;;;;;;;;11.18;67.26;96884.00;5091281;28;19934;-79
2023/11/06 06:51:08;;;;;;;;;;;;;;;11.08;68.23;96889.88;5091001;28;19924;-79
2023/11/06 06:53:58;;;;;;;;;;;;;;;11.14;67.65;96891.28;5080060;28;19985;-80
2023/11/06 06:56:47;;;;;;;;;;;;;;;11.31;67.19;96885.59;5087992;28;20307;-80
2023/11/06 06:59:35;;;;;;;;;;;;;;;11.35;67.15;96886.50;5091679;28;19980;-79
2023/11/06 07:02:24;;;;;;;;;;;;;;;11.39;66.98;96886.59;5069670;28;19935;-79
2023/11/06 07:05:12;;;;;;;;;;;;;;;11.25;67.43;96887.75;5092681;28;19924;-80
2023/11/06 07:08:01;;;;;;;;;;;;;;;11.34;67.29;96895.00;5083100;28;19924;-79
2023/11/06 07:10:51;;;;;;;;;;;;;;;11.36;66.70;96890.03;5089506;28;19924;-82
2023/11/06 07:13:39;;;;;;;;;;;;;;;11.39;66.36;96902.91;5092278;28;19931;-79
2023/11/06 07:16:43;;;;;;;;;;;;;;;11.42;66.69;96907.69;5105864;27;19973;-73
2023/11/06 07:19:31;;;;;;;;;;;;;;;11.46;66.22;96914.81;5076859;28;20415;-73
2023/11/06 07:22:20;;;;;;;;;;;;;;;11.38;67.46;96918.44;5097719;28;19928;-74
2023/11/06 07:25:08;;;;;;;;;;;;;;;11.41;67.26;96922.41;5096877;28;19967;-74
2023/11/06 07:27:56;;;;;;;;;;;;;;;11.44;65.93;96922.50;5105317;28;19989;-74
2023/11/06 07:30:45;;;;;;;;;;;;;;;11.40;65.99;96923.53;5105955;28;20070;-74
2023/11/06 07:33:36;;;;;;;;;;;;;;;11.43;66.21;96931.81;5103706;28;20320;-74
2023/11/06 07:36:24;;;;;;;;;;;;;;;11.50;65.35;96929.34;5093710;28;19932;-74
2023/11/06 07:39:14;;;;;;;;;;;;;;;11.44;66.23;96929.88;5089096;28;19923;-74
2023/11/06 07:42:02;;;;;;;;;;;;;;;11.48;65.47;96931.59;5086614;28;19928;-73
2023/11/06 07:44:53;;;;;;;;;;;;;;;11.57;65.21;96938.84;5096651;27;19935;-74
2023/11/06 07:47:41;;;;;;;;;;;;;;;11.61;64.92;96939.72;5127598;27;20006;-73
2023/11/06 07:50:32;;;;;;;;;;;;;;;11.55;65.21;96944.59;5139396;27;19927;-73
2023/11/06 07:53:20;;;;;;;;;;;;;;;11.64;65.25;96945.28;5132188;27;19983;-74
2023/11/06 07:56:09;;;;;;;;;;;;;;;11.75;64.81;96945.63;5103142;27;19923;-73
2023/11/06 07:58:58;;;;;;;;;;;;;;;11.68;64.34;96948.13;5138903;27;20393;-74
2023/11/06 08:01:46;;;;;;;;;;;;;;;11.63;64.37;96954.59;5104367;28;19931;-73
2023/11/06 08:04:34;;;;;;;;;;;;;;;11.59;64.52;96964.56;5119924;27;19944;-74
2023/11/06 08:07:24;;;;;;;;;;;;;;;11.52;64.97;96962.41;5111595;28;19923;-74
2023/11/06 08:10:16;;;;;;;;;;;;;;;11.62;64.81;96957.66;5122562;27;19983;-73
2023/11/06 08:13:04;;;;;;;;;;;;;;;11.55;64.69;96969.09;5119430;28;20016;-74
2023/11/06 08:15:52;;;;;;;;;;;;;;;11.55;64.94;96974.53;5124468;27;19930;-73
2023/11/06 08:18:41;;;;;;;;;;;;;;;11.61;64.51;96966.94;5111997;27;20012;-73
2023/11/06 08:21:30;;;;;;;;;;;;;;;11.53;64.97;96980.31;5123418;27;19924;-73
2023/11/06 08:24:19;;;;;;;;;;;;;;;11.57;64.76;96976.94;5113524;27;19928;-73
2023/11/06 08:27:11;;;;;;;;;;;;;;;11.59;64.75;96989.03;5130321;27;20420;-73
2023/11/06 08:30:04;;;;;;;;;;;;;;;11.63;64.80;97000.06;5105618;28;19924;-73
2023/11/06 08:32:52;;;;;;;;;;;;;;;11.56;64.62;97000.63;5081175;28;20053;-73
2023/11/06 08:35:43;;;;;;;;;;;;;;;11.54;64.25;97003.66;5106623;28;19972;-74
2023/11/06 08:38:31;;;;;;;;;;;;;;;11.53;64.21;96999.38;5108328;27;19935;-73
2023/11/06 08:41:20;;;;;;;;;;;;;;;11.69;63.25;97009.56;5123481;27;19925;-74
2023/11/06 08:44:09;;;;;;;;;;;;;;;11.67;64.00;97004.47;5117738;27;20612;-73
2023/11/06 08:46:57;;;;;;;;;;;;;;;11.71;63.31;97018.19;5111844;28;19924;-73
2023/11/06 08:49:46;;;;;;;;;;;;;;;11.65;64.27;97031.22;5107389;28;19931;-73
2023/11/06 08:52:34;;;;;;;;;;;;;;;11.70;64.17;97031.00;5111910;28;20057;-73
2023/11/06 08:55:22;;;;;;;;;;;;;;;11.80;63.33;97032.47;5094559;28;19927;-73
2023/11/06 08:58:16;;;;;;;;;;;;;;;11.90;62.04;97042.16;5097019;28;19923;-73
2023/11/06 09:01:06;;;;;;;;;;;;;;;11.89;61.82;97046.00;5109110;27;20374;-73
2023/11/06 09:03:54;;;;;;;;;;;;;;;11.79;62.58;97049.94;5111011;28;19928;-74
2023/11/06 09:06:42;;;;;;;;;;;;;;;11.82;61.67;97048.47;5095216;28;19930;-73
2023/11/06 09:09:31;;;;;;;;;;;;;;;11.80;61.12;97054.25;5095561;28;20073;-73
2023/11/06 09:12:20;;;;;;;;;;;;;;;11.75;60.39;97052.53;5101295;28;19924;-73
2023/11/06 09:15:11;;;;;;;;;;;;;;;11.76;59.85;97047.88;5101360;28;19951;-73
2023/11/06 09:17:59;;;;;;;;;;;;;;;11.73;59.36;97057.53;5111903;28;20591;-73
2023/11/06 09:20:51;;;;;;;;;;;;;;;11.73;57.93;97052.09;5106508;28;19935;-73
2023/11/06 09:23:39;;;;;;;;;;;;;;;11.75;58.67;97065.34;5101129;28;19924;-73
2023/11/06 09:26:27;;;;;;;;;;;;;;;11.64;56.54;97061.50;5102744;28;20422;-73
2023/11/06 09:29:15;;;;;;;;;;;;;;;11.70;57.56;97066.38;5107794;28;19932;-73
2023/11/06 09:32:05;;;;;;;;;;;;;;;11.71;56.49;97075.31;5112191;28;20135;-73
2023/11/06 09:34:55;;;;;;;;;;;;;;;11.70;57.36;97088.13;5109077;28;19932;-73
2023/11/06 09:37:43;;;;;;;;;;;;;;;11.78;56.51;97083.72;5109321;28;19924;-73
2023/11/06 09:40:31;;;;;;;;;;;;;;;11.84;56.83;97081.59;5096882;28;19935;-73
2023/11/06 09:43:19;;;;;;;;;;;;;;;11.88;56.70;97094.19;5108455;28;20393;-73
2023/11/06 09:46:08;;;;;;;;;;;;;;;11.93;56.90;97088.53;5125223;27;20234;-73
2023/11/06 09:49:11;;;;;;;;;;;;;;;11.99;56.46;97094.56;5125992;27;19931;-73
2023/11/06 09:52:02;;;;;;;;;;;;;;;12.07;56.36;97101.78;5096485;28;19924;-74
2023/11/06 09:54:54;;;;;;;;;;;;;;;12.27;55.58;97100.09;5110830;28;20143;-73
2023/11/06 09:57:42;;;;;;;;;;;;;;;12.38;55.64;97106.66;5114511;28;19930;-73
2023/11/06 10:00:30;;;;;;;;;;;;;;;12.48;54.89;97110.84;5096284;28;19923;-74
2023/11/06 10:03:18;;;;;;;;;;;;;;;12.55;55.23;97111.06;5108782;28;19943;-74
2023/11/06 10:06:08;;;;;;;;;;;;;;;12.64;55.46;97108.22;5111261;28;19927;-74
2023/11/06 10:08:57;;;;;;;;;;;;;;;12.73;55.14;97106.94;5102195;28;19928;-74
2023/11/06 10:11:45;;;;;;;;;;;;;;;12.72;54.07;97112.72;5112912;27;19931;-73
2023/11/06 10:14:37;;;;;;;;;;;;;;;12.75;54.27;97107.38;5106320;28;20020;-73
2023/11/06 10:17:25;;;;;;;;;;;;;;;12.84;54.65;97118.16;5088765;27;19974;-73
2023/11/06 10:20:16;;;;;;;;;;;;;;;12.84;53.98;97107.25;5106149;28;20464;-74
2023/11/06 10:23:07;;;;;;;;;;;;;;;12.85;54.04;97120.53;5110113;28;19927;-74
2023/11/06 10:25:56;;;;;;;;;;;;;;;12.82;54.39;97115.75;5112017;28;20406;-73
2023/11/06 10:28:44;;;;;;;;;;;;;;;12.85;54.16;97115.09;5109491;28;19938;-73
2023/11/06 10:31:35;;;;;;;;;;;;;;;12.92;54.23;97113.69;5110399;27;19928;-72
2023/11/06 10:34:25;;;;;;;;;;;;;;;12.97;54.18;97116.97;5099018;28;19924;-73
2023/11/06 10:37:15;;;;;;;;;;;;;;;13.10;53.92;97109.53;5104890;28;20076;-73
2023/11/06 10:40:06;;;;;;;;;;;;;;;13.16;53.94;97113.63;5095853;28;20389;-73
2023/11/06 10:42:55;;;;;;;;;;;;;;;13.13;53.82;97111.56;5109943;27;20346;-73
2023/11/06 10:45:45;;;;;;;;;;;;;;;13.11;53.57;97117.38;5111995;27;20399;-73
2023/11/06 10:48:34;;;;;;;;;;;;;;;13.06;53.99;97114.13;5117698;27;19931;-73
2023/11/06 10:51:24;;;;;;;;;;;;;;;12.94;53.57;97104.03;5097986;28;20437;-73
2023/11/06 10:54:12;;;;;;;;;;;;;;;12.84;53.58;97108.06;5113584;28;19927;-73
2023/11/06 10:57:04;;;;;;;;;;;;;;;12.83;54.61;97103.72;5111657;28;20400;-73
2023/11/06 10:59:53;;;;;;;;;;;;;;;12.84;54.36;97091.69;5099870;28;19923;-73
2023/11/06 11:02:43;;;;;;;;;;;;;;;12.81;54.19;97097.03;5105798;28;20032;-75
2023/11/06 11:05:33;;;;;;;;;;;;;;;12.85;52.80;97092.50;5104238;28;19928;-74
2023/11/06 11:08:25;;;;;;;;;;;;;;;12.87;51.97;97087.47;5107957;28;20049;-75
2023/11/06 11:11:13;;;;;;;;;;;;;;;12.83;51.37;97089.28;5107136;28;20399;-73
2023/11/06 11:14:03;;;;;;;;;;;;;;;12.80;51.24;97085.34;5096238;28;19928;-74
2023/11/06 11:16:53;;;;;;;;;;;;;;;12.75;50.91;97084.78;5105033;28;20132;-73
2023/11/06 11:19:41;;;;;;;;;;;;;;;12.70;50.59;97090.47;5106733;28;19963;-74
2023/11/06 11:22:31;;;;;;;;;;;;;;;12.69;51.27;97078.78;5107530;28;20018;-74
2023/11/06 11:25:28;;;;;;;;;;;;;;;12.70;51.28;97083.09;5108000;28;19959;-73
2023/11/06 11:28:16;;;;;;;;;;;;;;;12.67;51.52;97096.59;5108773;28;19948;-73
2023/11/06 11:31:19;;;;;;;;;;;;;;;12.70;51.80;97085.03;5094203;28;19930;-74
2023/11/06 11:34:09;;;;;;;;;;;;;;;12.84;51.43;97090.91;5092904;28;19967;-73
2023/11/06 11:36:58;;;;;;;;;;;;;;;12.92;51.21;97091.88;5108404;28;20019;-73
2023/11/06 11:39:49;;;;;;;;;;;;;;;12.97;51.02;97091.66;5111200;28;19924;-73
2023/11/06 11:42:38;;;;;;;;;;;;;;;12.94;50.56;97093.13;5108305;28;19927;-73
2023/11/06 11:45:29;;;;;;;;;;;;;;;12.94;51.18;97100.50;5089526;28;19927;-73
2023/11/06 11:48:17;;;;;;;;;;;;;;;12.95;50.27;97097.44;5097368;28;20451;-74
2023/11/06 11:51:07;;;;;;;;;;;;;;;12.93;50.92;97104.38;5109694;28;20389;-73
2023/11/06 11:53:55;;;;;;;;;;;;;;;12.92;50.88;97098.13;5102013;28;20364;-74
2023/11/06 11:56:49;;;;;;;;;;;;;;;12.95;50.82;97102.13;5106297;28;19945;-73
2023/11/06 11:59:38;;;;;;;;;;;;;;;12.96;51.19;97098.25;5105874;28;20014;-74
2023/11/06 12:02:27;;;;;;;;;;;;;;;12.98;50.52;97102.19;5110455;28;20446;-74
2023/11/06 12:05:17;;;;;;;;;;;;;;;13.04;50.62;97103.53;5114406;27;19961;-74
2023/11/06 12:08:16;;;;;;;;;;;;;;;13.11;51.09;97111.13;5105130;28;19924;-73
2023/11/06 12:11:07;;;;;;;;;;;;;;;13.19;50.43;97118.38;5111711;28;20396;-74
2023/11/06 12:13:56;;;;;;;;;;;;;;;13.22;50.18;97127.84;5108676;28;20016;-74
2023/11/06 12:16:48;;;;;;;;;;;;;;;13.23;50.50;97118.50;5113500;28;20403;-74
2023/11/06 12:19:39;;;;;;;;;;;;;;;13.32;50.59;97111.75;5114135;28;20025;-74
2023/11/06 12:22:30;;;;;;;;;;;;;;;13.41;50.27;97117.03;5112054;28;19936;-74
2023/11/06 12:25:28;;;;;;;;;;;;;;;13.44;49.88;97102.72;5125453;27;19923;-74
2023/11/06 12:28:16;;;;;;;;;;;;;;;13.46;49.70;97108.59;5125499;27;19928;-74
2023/11/06 12:31:04;;;;;;;;;;;;;;;13.48;49.77;97100.88;5108989;27;20088;-74
2023/11/06 12:33:52;;;;;;;;;;;;;;;13.41;49.53;97103.41;5125971;27;19924;-74
2023/11/06 12:36:43;;;;;;;;;;;;;;;13.51;50.61;97102.88;5111624;28;19973;-74
2023/11/06 12:39:33;;;;;;;;;;;;;;;13.58;49.78;97113.19;5112032;27;19950;-74
2023/11/06 12:42:24;;;;;;;;;;;;;;;13.52;48.58;97101.75;5112354;28;19967;-74
2023/11/06 12:45:26;;;;;;;;;;;;;;;13.45;49.00;97101.56;5097425;28;19924;-74
2023/11/06 12:48:23;;;;;;;;;;;;;;;13.36;50.03;97092.75;5095813;28;19985;-74
2023/11/06 12:51:13;;;;;;;;;;;;;;;13.28;49.38;97090.97;5097320;28;19924;-74
2023/11/06 12:54:01;;;;;;;;;;;;;;;13.26;48.83;97090.50;5115031;27;20332;-74
2023/11/06 12:56:49;;;;;;;;;;;;;;;13.18;49.43;97099.63;5110357;28;19924;-74
2023/11/06 12:59:40;;;;;;;;;;;;;;;13.22;49.25;97095.91;5112186;28;19931;-74
2023/11/06 13:02:31;;;;;;;;;;;;;;;13.21;48.89;97098.91;5112346;28;19931;-74
2023/11/06 13:05:20;;;;;;;;;;;;;;;13.26;48.99;97095.97;5101787;28;19931;-74
2023/11/06 13:08:08;;;;;;;;;;;;;;;13.30;49.10;97103.13;5110552;28;20034;-74
2023/11/06 13:10:58;;;;;;;;;;;;;;;13.35;48.40;97094.69;5108629;28;19982;-74
2023/11/06 13:13:47;;;;;;;;;;;;;;;13.36;48.59;97095.47;5108524;28;19923;-74
2023/11/06 13:16:37;;;;;;;;;;;;;;;13.35;49.34;97099.34;5106494;28;19931;-74
2023/11/06 13:19:28;;;;;;;;;;;;;;;13.38;48.85;97093.19;5114845;28;20649;-75
2023/11/06 13:22:17;;;;;;;;;;;;;;;13.43;48.80;97090.22;5119246;27;19950;-76
2023/11/06 13:25:06;;;;;;;;;;;;;;;13.46;48.92;97084.03;5116551;28;19924;-76
2023/11/06 13:27:56;;;;;;;;;;;;;;;13.52;48.97;97082.63;5125291;27;19984;-76
2023/11/06 13:30:44;;;;;;;;;;;;;;;13.57;49.13;97079.66;5113330;27;20001;-76
2023/11/06 13:33:33;;;;;;;;;;;;;;;13.43;49.28;97078.50;5112987;28;19925;-76
2023/11/06 13:36:22;;;;;;;;;;;;;;;13.49;49.17;97077.91;5111864;28;20015;-76
2023/11/06 13:39:14;;;;;;;;;;;;;;;13.47;49.30;97076.66;5113912;28;19978;-76
2023/11/06 13:42:04;;;;;;;;;;;;;;;13.48;49.20;97078.25;5125072;27;20545;-76
2023/11/06 13:44:52;;;;;;;;;;;;;;;13.50;50.21;97084.94;5112786;28;19971;-76
2023/11/06 13:47:41;;;;;;;;;;;;;;;13.57;50.30;97085.13;5123930;27;19950;-76
2023/11/06 13:50:32;;;;;;;;;;;;;;;13.60;48.96;97084.41;5107946;27;20487;-76
2023/11/06 13:53:23;;;;;;;;;;;;;;;13.52;49.57;97088.09;5113170;28;19931;-77
2023/11/06 13:56:18;;;;;;;;;;;;;;;13.61;50.00;97090.66;5113162;28;19972;-76
2023/11/06 13:59:08;;;;;;;;;;;;;;;13.58;49.53;97092.19;5115626;28;19930;-76
2023/11/06 14:01:59;;;;;;;;;;;;;;;13.59;49.60;97091.03;5107793;28;19924;-75
2023/11/06 14:04:54;;;;;;;;;;;;;;;13.52;49.96;97088.09;5113871;28;19928;-76
2023/11/06 14:07:44;;;;;;;;;;;;;;;13.53;49.89;97097.91;5113150;28;19935;-76
2023/11/06 14:10:32;;;;;;;;;;;;;;;13.53;49.63;97094.34;5111323;28;19934;-76
2023/11/06 14:13:21;;;;;;;;;;;;;;;13.44;49.82;97086.34;5110969;27;19938;-75
2023/11/06 14:16:11;;;;;;;;;;;;;;;13.57;50.21;97079.66;5129398;27;19924;-76
2023/11/06 14:18:59;;;;;;;;;;;;;;;13.57;49.98;97087.06;5122160;27;19932;-76
2023/11/06 14:21:50;;;;;;;;;;;;;;;13.63;50.98;97086.47;5116846;27;19924;-76
2023/11/06 14:24:39;;;;;;;;;;;;;;;13.64;50.74;97079.06;5110497;27;20362;-76
2023/11/06 14:27:29;;;;;;;;;;;;;;;13.57;51.55;97087.84;5114286;27;19942;-76
2023/11/06 14:30:17;;;;;;;;;;;;;;;13.57;50.93;97089.78;5109821;27;19923;-76
2023/11/06 14:33:08;;;;;;;;;;;;;;;13.62;50.91;97087.59;5101234;28;20064;-76
2023/11/06 14:35:58;;;;;;;;;;;;;;;13.67;51.00;97080.28;5107154;28;19928;-75
2023/11/06 14:38:46;;;;;;;;;;;;;;;13.60;51.88;97086.38;5113066;28;19924;-75
2023/11/06 14:41:41;;;;;;;;;;;;;;;13.51;51.58;97081.06;5108587;28;19931;-76
2023/11/06 14:44:29;;;;;;;;;;;;;;;13.58;51.15;97091.38;5117062;27;19927;-75